Observations for BREST GUIPAVAS, France (LFRB)

LFRB 220730Z AUTO 15006KT 110V170 9999 -RA SCT012 SCT033 BKN040 12/11 Q1019 BECMG 18020G30KT 4000 -RA BKN013 OVC090 
LFRB 220700Z AUTO 16007KT 4700 -RA BR FEW011 BKN023 BKN034 12/11 Q1020 TEMPO 9999 NSW BECMG 18020G30KT BKN013 OVC090
LFRB 220630Z AUTO 16005KT 9999 -RA FEW017 SCT022 BKN027 12/10 Q1020 BECMG 18020G30KT 4000 -RA BKN013 OVC090 
LFRB 220600Z AUTO 14005KT 9999 -DZ BKN034 BKN064 OVC076 12/10 Q1020 NOSIG   
LFRB 220530Z AUTO 15005KT CAVOK 12/10 Q1020 NOSIG   
LFRB 220500Z AUTO 15005KT CAVOK 12/10 Q1020 NOSIG   
LFRB 220430Z AUTO 15006KT 9999 FEW011 BKN076 OVC100 12/10 Q1020 NOSIG   
LFRB 220400Z AUTO 16005KT 9999 -RA NSC 12/10 Q1021 NOSIG
LFRB 220330Z AUTO 18004KT CAVOK 12/10 Q1022 NOSIG   
LFRB 220300Z AUTO 18005KT CAVOK 12/10 Q1022 NOSIG   
LFRB 220230Z AUTO 19005KT CAVOK 12/10 Q1022 NOSIG   
LFRB 220200Z AUTO 19004KT CAVOK 12/10 Q1022 NOSIG   
LFRB 220130Z AUTO 18005KT 9999 FEW032 OVC130 12/10 Q1022 NOSIG  
LFRB 220100Z AUTO 18004KT 9999 FEW033 OVC150 11/09 Q1022 NOSIG  
LFRB 220030Z AUTO 20003KT CAVOK 11/09 Q1023 NOSIG   
LFRB 220000Z AUTO 20003KT CAVOK 11/09 Q1023 NOSIG   
LFRB 212330Z AUTO 21003KT CAVOK 11/09 Q1023 NOSIG   
LFRB 212300Z AUTO 20004KT 9999 FEW034 BKN150 BKN180 11/09 Q1023 NOSIG   
LFRB 212230Z AUTO 19004KT CAVOK 11/09 Q1023 NOSIG   
LFRB 212200Z AUTO 22003KT 9999 FEW033 BKN140 BKN160 12/09 Q1023 NOSIG   
LFRB 212130Z AUTO 23003KT CAVOK 11/09 Q1023 NOSIG   
LFRB 212100Z AUTO 24004KT 9999 FEW045 BKN160 BKN190 12/09 Q1023 NOSIG   
LFRB 212030Z AUTO 24004KT 9999 FEW047 BKN170 OVC220 12/09 Q1023 NOSIG   
LFRB 212000Z AUTO 27004KT 250V310 9999 FEW030 BKN042 BKN050 12/09 Q1023 NOSIG   
LFRB 211930Z AUTO 24005KT 9999 FEW034 SCT040 BKN046 12/09 Q1022 NOSIG   
LFRB 211900Z AUTO 22004KT 9999 SCT037 BKN060 BKN220 12/09 Q1022 NOSIG   
LFRB 211830Z AUTO 23003KT 9999 FEW035 11/08 Q1022 NOSIG 
LFRB 211800Z AUTO 24003KT 9999 FEW038 BKN062 13/09 Q1022 NOSIG  
LFRB 211730Z AUTO 27004KT 240V300 CAVOK 14/08 Q1022 NOSIG   
LFRB 211700Z AUTO 28006KT 250V330 CAVOK 14/07 Q1021 NOSIG   
LFRB 211630Z AUTO 27009KT 9999 FEW036 SCT058 15/07 Q1021 NOSIG  
LFRB 211600Z AUTO 28008KT 250V320 9999 FEW034 SCT058 BKN220 15/09 Q1021 NOSIG   
LFRB 211530Z AUTO 29010KT 250V340 9999 BKN037 16/08 Q1021 NOSIG 
LFRB 211500Z AUTO 28011KT 230V330 9999 BKN041 BKN047 BKN062 16/07 Q1021 NOSIG   
LFRB 211430Z AUTO 27011KT 240V310 9999 BKN038 BKN044 BKN052 16/08 Q1021 NOSIG   
LFRB 211400Z AUTO 27012KT 240V300 9999 BKN038 BKN046 17/08 Q1020 TEMPO 29015G25KT SCT030TCU 
LFRB 211330Z AUTO 27014KT 9999 BKN037 BKN043 16/08 Q1020 TEMPO 29015G25KT SCT030TCU 
LFRB 211300Z AUTO 29010KT 250V320 9999 BKN037 BKN045 15/08 Q1020 TEMPO 29015G25KT SCT030TCU 
LFRB 211230Z AUTO 28011KT 250V310 9999 BKN041 BKN056 16/08 Q1020 TEMPO 29015G25KT SCT030TCU 
LFRB 211200Z AUTO 29012KT 270V330 9999 FEW043 16/07 Q1019 TEMPO 29015G25KT SCT030TCU
LFRB 211130Z AUTO 28007KT 240V310 9999 FEW034 SCT041 BKN068 15/08 Q1019 TEMPO 29015G25KT SCT030TCU  
LFRB 211100Z AUTO 29012KT 240V330 9999 BKN038 BKN050 BKN064 15/07 Q1019 TEMPO SCT020TCU 
LFRB 211030Z AUTO 30011KT 250V330 9999 SCT032 SCT039 BKN058 14/09 Q1018 TEMPO SCT020TCU 
LFRB 211000Z AUTO 28011KT 250V320 9999 BKN039 BKN049 BKN058 15/07 Q1018 TEMPO SCT020TCU 
LFRB 210930Z AUTO 28010KT 240V310 CAVOK 15/07 Q1017 TEMPO SCT020TCU 
LFRB 210900Z AUTO 28007KT 240V310 9999 FEW046 15/08 Q1017 TEMPO SCT020TCU   
LFRB 210830Z AUTO 28008KT 260V320 9999 FEW035 SCT046 BKN056 14/08 Q1017 TEMPO SCT020TCU 
LFRB 210800Z AUTO 28005KT 250V310 9999 FEW037 SCT064 13/09 Q1016 TEMPO SCT020TCU
LFRB 210730Z AUTO 28004KT CAVOK 12/09 Q1016 TEMPO SCT020TCU 
LFRB 210700Z AUTO 29004KT 260V320 CAVOK 11/08 Q1015 TEMPO SCT020TCU